Time;durP1;ratioP1;P1;durP2;ratioP2;P2;SDS_P1;SDS_P2;PMS_P1;PMS_P2;Temp;Humidity;BMP_temperature;BMP_pressure;BME280_temperature;BME280_humidity;BME280_pressure;Samples;Min_cycle;Max_cycle;Signal;HPM_P1;HPM_P2
2021/11/19 00:00:09;;;;;;;15.90;8.57;;;;;;;;;;5068167;28;20032;-62
2021/11/19 00:02:55;;;;;;;13.65;7.97;;;;;;;;;;5067024;28;20040;-64
2021/11/19 00:05:41;;;;;;;11.18;7.60;;;;;;;;;;5068041;28;20478;-63
2021/11/19 00:08:27;;;;;;;15.40;9.60;;;;;;;;;;5068453;28;20039;-63
2021/11/19 00:11:14;;;;;;;17.17;8.13;;;;;;;;;;5066020;28;20115;-61
2021/11/19 00:14:00;;;;;;;13.77;8.60;;;;;;;;;;5068106;28;20031;-62
2021/11/19 00:16:47;;;;;;;16.83;8.32;;;;;;;;;;5058949;28;20031;-61
2021/11/19 00:19:33;;;;;;;15.38;8.85;;;;;;;;;;5068884;28;20541;-62
2021/11/19 00:22:19;;;;;;;14.40;8.52;;;;;;;;;;5081113;28;20082;-62
2021/11/19 00:25:05;;;;;;;12.93;8.57;;;;;;;;;;5068847;28;20098;-68
2021/11/19 00:27:51;;;;;;;13.05;8.25;;;;;;;;;;5066838;28;20048;-68
2021/11/19 00:30:37;;;;;;;17.33;9.27;;;;;;;;;;5068088;28;20115;-66
2021/11/19 00:33:22;;;;;;;14.07;8.45;;;;;;;;;;5065644;28;20582;-66
2021/11/19 00:36:08;;;;;;;12.38;8.18;;;;;;;;;;5068108;28;20090;-65
2021/11/19 00:38:56;;;;;;;13.60;8.50;;;;;;;;;;5067083;28;20025;-67
2021/11/19 00:41:42;;;;;;;11.65;7.53;;;;;;;;;;5068592;28;20074;-62
2021/11/19 00:44:27;;;;;;;14.07;8.63;;;;;;;;;;5070575;28;20086;-65
2021/11/19 00:47:13;;;;;;;14.60;9.35;;;;;;;;;;5058699;28;20016;-63
2021/11/19 00:50:00;;;;;;;14.55;8.20;;;;;;;;;;5071227;28;20475;-62
2021/11/19 00:52:45;;;;;;;16.00;8.57;;;;;;;;;;5069901;28;20409;-63
2021/11/19 00:55:31;;;;;;;15.18;8.77;;;;;;;;;;5070670;28;20078;-65
2021/11/19 00:58:17;;;;;;;11.63;7.55;;;;;;;;;;5056764;28;20063;-66
2021/11/19 01:01:14;;;;;;;16.10;8.60;;;;;;;;;;5084434;28;20021;-63
2021/11/19 01:04:00;;;;;;;12.82;7.72;;;;;;;;;;5073227;28;20302;-65
2021/11/19 01:06:46;;;;;;;16.60;8.43;;;;;;;;;;5051385;28;20090;-64
2021/11/19 01:09:33;;;;;;;13.30;8.18;;;;;;;;;;5074707;28;20097;-64
2021/11/19 01:12:19;;;;;;;17.10;9.05;;;;;;;;;;5051943;28;20494;-62
2021/11/19 01:15:12;;;;;;;13.15;7.88;;;;;;;;;;5069253;28;20550;-63
2021/11/19 01:17:59;;;;;;;16.55;8.60;;;;;;;;;;5057557;28;20587;-61
2021/11/19 01:20:49;;;;;;;13.15;8.80;;;;;;;;;;5073824;28;20431;-62
2021/11/19 01:23:35;;;;;;;18.30;8.70;;;;;;;;;;5070220;28;20468;-61
2021/11/19 01:26:22;;;;;;;11.50;7.75;;;;;;;;;;5070562;28;20077;-62
2021/11/19 01:29:09;;;;;;;13.77;8.55;;;;;;;;;;5070363;28;20125;-62
2021/11/19 01:31:58;;;;;;;14.75;8.13;;;;;;;;;;5070936;28;20112;-61
2021/11/19 01:34:43;;;;;;;13.38;8.40;;;;;;;;;;5069580;28;20048;-65
2021/11/19 01:37:28;;;;;;;14.60;8.05;;;;;;;;;;5071015;28;20028;-64
2021/11/19 01:40:15;;;;;;;12.55;7.40;;;;;;;;;;5069651;28;20024;-63
2021/11/19 01:43:03;;;;;;;12.55;7.75;;;;;;;;;;5070803;28;20032;-63
2021/11/19 01:45:52;;;;;;;11.30;7.80;;;;;;;;;;5061759;28;20024;-62
2021/11/19 01:48:40;;;;;;;;;;;;;;;;;;5083864;28;20027;-64
2021/11/19 01:51:45;;;;;;;10.98;7.10;;;;;;;;;;5082332;28;19923;-62
2021/11/19 01:54:47;;;;;;;11.40;7.30;;;;;;;;;;5074892;28;20024;-63
2021/11/19 01:57:37;;;;;;;13.30;8.05;;;;;;;;;;5069913;28;20501;-61
2021/11/19 02:00:38;;;;;;;14.32;7.28;;;;;;;;;;5069358;28;20051;-62
2021/11/19 02:03:25;;;;;;;12.00;7.20;;;;;;;;;;5064455;28;20103;-67
2021/11/19 02:06:17;;;;;;;13.45;8.30;;;;;;;;;;5068929;28;20086;-61
2021/11/19 02:09:05;;;;;;;15.57;8.88;;;;;;;;;;5070451;28;20385;-61
2021/11/19 02:12:03;;;;;;;11.25;7.20;;;;;;;;;;5068238;28;20036;-65
2021/11/19 02:14:51;;;;;;;14.00;7.10;;;;;;;;;;5064888;28;20386;-61
2021/11/19 02:17:36;;;;;;;14.30;7.97;;;;;;;;;;5069009;28;20430;-62
2021/11/19 02:20:34;;;;;;;13.75;7.72;;;;;;;;;;5074027;28;20028;-65
2021/11/19 02:23:22;;;;;;;14.57;7.35;;;;;;;;;;5069400;28;20035;-64
2021/11/19 02:26:13;;;;;;;11.57;6.97;;;;;;;;;;5069954;28;20081;-61
2021/11/19 02:28:58;;;;;;;12.95;7.95;;;;;;;;;;5069618;28;20467;-60
2021/11/19 02:31:47;;;;;;;12.55;8.18;;;;;;;;;;5067595;28;20549;-63
2021/11/19 02:34:32;;;;;;;15.07;8.30;;;;;;;;;;5083966;28;20032;-65
2021/11/19 02:37:24;;;;;;;13.05;8.07;;;;;;;;;;5068556;28;20487;-65
2021/11/19 02:40:15;;;;;;;15.15;9.02;;;;;;;;;;5083960;28;20028;-64
2021/11/19 02:43:03;;;;;;;13.98;7.57;;;;;;;;;;5068424;28;20355;-65
2021/11/19 02:45:49;;;;;;;11.80;7.32;;;;;;;;;;5069713;28;20119;-64
2021/11/19 02:48:35;;;;;;;11.18;7.43;;;;;;;;;;5068815;28;20372;-60
2021/11/19 02:51:21;;;;;;;14.85;8.40;;;;;;;;;;5068504;28;20028;-62
2021/11/19 02:54:08;;;;;;;13.85;8.90;;;;;;;;;;5068697;28;20059;-63
2021/11/19 02:56:54;;;;;;;14.77;9.15;;;;;;;;;;5076983;28;20034;-64
2021/11/19 02:59:40;;;;;;;15.77;9.35;;;;;;;;;;5068179;28;20024;-64
2021/11/19 03:02:28;;;;;;;13.15;7.60;;;;;;;;;;5055611;28;20031;-61
2021/11/19 03:05:16;;;;;;;13.63;8.27;;;;;;;;;;5064275;28;20066;-62
2021/11/19 03:08:01;;;;;;;13.35;8.88;;;;;;;;;;5066852;28;20398;-64
2021/11/19 03:10:48;;;;;;;14.55;8.40;;;;;;;;;;5082666;28;20037;-65
2021/11/19 03:13:35;;;;;;;14.30;9.50;;;;;;;;;;5061489;28;20395;-68
2021/11/19 03:16:21;;;;;;;15.63;10.05;;;;;;;;;;5081910;28;20550;-65
2021/11/19 03:19:07;;;;;;;14.23;8.98;;;;;;;;;;5067772;28;20036;-65
2021/11/19 03:21:52;;;;;;;15.32;8.48;;;;;;;;;;5068815;28;20031;-66
2021/11/19 03:24:38;;;;;;;11.00;7.63;;;;;;;;;;5067729;28;20046;-64
2021/11/19 03:27:24;;;;;;;14.65;7.63;;;;;;;;;;5068836;28;20044;-65
2021/11/19 03:30:10;;;;;;;13.32;8.80;;;;;;;;;;5067483;28;20046;-66
2021/11/19 03:32:56;;;;;;;13.93;8.38;;;;;;;;;;5067606;28;20126;-65
2021/11/19 03:35:41;;;;;;;11.70;7.32;;;;;;;;;;5067606;28;20037;-65
2021/11/19 03:38:28;;;;;;;18.52;9.82;;;;;;;;;;5068515;28;20012;-66
2021/11/19 03:41:15;;;;;;;11.88;6.95;;;;;;;;;;5067291;28;20040;-66
2021/11/19 03:44:03;;;;;;;12.32;7.50;;;;;;;;;;5057137;28;20078;-60
2021/11/19 03:46:58;;;;;;;18.43;8.90;;;;;;;;;;5068464;28;20466;-62
2021/11/19 03:49:44;;;;;;;16.52;9.13;;;;;;;;;;5049165;28;20025;-64
2021/11/19 03:52:31;;;;;;;12.27;7.88;;;;;;;;;;5067371;28;20036;-67
2021/11/19 03:55:19;;;;;;;15.55;9.48;;;;;;;;;;5067059;28;20562;-61
2021/11/19 03:58:05;;;;;;;13.90;7.65;;;;;;;;;;5068488;28;20537;-66
2021/11/19 04:01:10;;;;;;;14.63;8.15;;;;;;;;;;5067185;28;20111;-64
2021/11/19 04:03:56;;;;;;;15.20;8.00;;;;;;;;;;5082447;28;20074;-66
2021/11/19 04:06:41;;;;;;;13.23;8.10;;;;;;;;;;5066924;28;20039;-63
2021/11/19 04:09:27;;;;;;;12.50;7.68;;;;;;;;;;5070091;28;20036;-68
2021/11/19 04:12:14;;;;;;;10.00;6.70;;;;;;;;;;5080280;28;20111;-66
2021/11/19 04:15:00;;;;;;;14.95;8.00;;;;;;;;;;5068229;28;20063;-65
2021/11/19 04:17:45;;;;;;;14.05;8.38;;;;;;;;;;5066387;28;20414;-65
2021/11/19 04:20:30;;;;;;;12.95;7.80;;;;;;;;;;5077461;28;20119;-64
2021/11/19 04:23:16;;;;;;;12.93;7.22;;;;;;;;;;5071661;28;20039;-63
2021/11/19 04:26:03;;;;;;;13.05;7.60;;;;;;;;;;5071426;28;20086;-63
2021/11/19 04:28:48;;;;;;;14.05;9.35;;;;;;;;;;5072353;28;20082;-63
2021/11/19 04:31:34;;;;;;;15.55;9.18;;;;;;;;;;5069701;28;20121;-62
2021/11/19 04:34:19;;;;;;;10.70;6.90;;;;;;;;;;5072215;28;20102;-64
2021/11/19 04:37:05;;;;;;;14.23;8.68;;;;;;;;;;5071040;28;20251;-64
2021/11/19 04:39:50;;;;;;;13.00;8.27;;;;;;;;;;5058139;28;20041;-64
2021/11/19 04:42:36;;;;;;;14.38;9.18;;;;;;;;;;5071023;28;20032;-64
2021/11/19 04:45:24;;;;;;;10.93;6.57;;;;;;;;;;5071698;28;20060;-61
2021/11/19 04:48:09;;;;;;;12.52;8.18;;;;;;;;;;5073130;28;20031;-62
2021/11/19 04:50:54;;;;;;;14.13;8.20;;;;;;;;;;5070746;28;20040;-62
2021/11/19 04:53:40;;;;;;;13.10;8.10;;;;;;;;;;5070731;28;20347;-61
2021/11/19 04:56:26;;;;;;;16.58;9.35;;;;;;;;;;5069426;28;20059;-63
2021/11/19 04:59:12;;;;;;;13.95;8.35;;;;;;;;;;5070267;28;20013;-68
2021/11/19 05:01:59;;;;;;;13.18;8.35;;;;;;;;;;5071566;28;20056;-66
2021/11/19 05:04:45;;;;;;;15.60;9.23;;;;;;;;;;5071042;28;20037;-67
2021/11/19 05:07:30;;;;;;;13.63;8.48;;;;;;;;;;5070983;28;20103;-68
2021/11/19 05:10:16;;;;;;;13.90;8.00;;;;;;;;;;5064960;28;20502;-64
2021/11/19 05:13:02;;;;;;;12.68;8.25;;;;;;;;;;5069780;28;20499;-67
2021/11/19 05:15:48;;;;;;;12.90;7.55;;;;;;;;;;5083595;28;20032;-64
2021/11/19 05:18:33;;;;;;;12.35;8.30;;;;;;;;;;5070064;28;20427;-65
2021/11/19 05:21:19;;;;;;;12.23;8.50;;;;;;;;;;5082402;28;20086;-65
2021/11/19 05:24:08;;;;;;;14.45;8.48;;;;;;;;;;5070005;28;20032;-64
2021/11/19 05:26:53;;;;;;;13.55;8.00;;;;;;;;;;5072720;28;20034;-67
2021/11/19 05:29:39;;;;;;;14.18;8.75;;;;;;;;;;5076827;28;20495;-62
2021/11/19 05:32:24;;;;;;;13.15;7.50;;;;;;;;;;5070971;28;20048;-64
2021/11/19 05:35:10;;;;;;;12.57;7.68;;;;;;;;;;5070685;28;20024;-60
2021/11/19 05:37:55;;;;;;;12.05;7.40;;;;;;;;;;5070545;28;20500;-62
2021/11/19 05:40:40;;;;;;;13.80;7.90;;;;;;;;;;5070233;28;20032;-62
2021/11/19 05:43:26;;;;;;;12.55;8.23;;;;;;;;;;5070874;28;20470;-61
2021/11/19 05:46:12;;;;;;;13.00;8.20;;;;;;;;;;5068876;28;20068;-61
2021/11/19 05:48:58;;;;;;;12.75;7.25;;;;;;;;;;5070929;28;20024;-62
2021/11/19 05:51:44;;;;;;;13.07;8.40;;;;;;;;;;5069313;28;20459;-64
2021/11/19 05:54:30;;;;;;;13.73;8.57;;;;;;;;;;5069561;28;20021;-64
2021/11/19 05:57:15;;;;;;;13.18;8.00;;;;;;;;;;5086023;28;20032;-60
2021/11/19 06:00:01;;;;;;;16.45;9.23;;;;;;;;;;5068368;28;20064;-60
2021/11/19 06:02:47;;;;;;;12.70;8.68;;;;;;;;;;5071804;28;20021;-60
2021/11/19 06:05:32;;;;;;;15.32;8.63;;;;;;;;;;5067686;28;20024;-62
2021/11/19 06:08:19;;;;;;;13.90;7.90;;;;;;;;;;5076833;28;20039;-61
2021/11/19 06:11:07;;;;;;;37.75;25.77;;;;;;;;;;5070357;28;20051;-59
2021/11/19 06:14:00;;;;;;;16.90;11.23;;;;;;;;;;5070570;28;20028;-62
2021/11/19 06:16:49;;;;;;;14.07;8.13;;;;;;;;;;5070831;28;20032;-60
2021/11/19 06:19:36;;;;;;;12.90;7.07;;;;;;;;;;5071477;28;20016;-60
2021/11/19 06:22:23;;;;;;;14.00;8.35;;;;;;;;;;5084533;28;20039;-61
2021/11/19 06:25:10;;;;;;;13.57;9.30;;;;;;;;;;5062551;28;20115;-61
2021/11/19 06:27:59;;;;;;;15.93;10.30;;;;;;;;;;5069831;28;20086;-61
2021/11/19 06:30:44;;;;;;;16.10;9.60;;;;;;;;;;5069631;28;20036;-60
2021/11/19 06:33:30;;;;;;;15.82;9.73;;;;;;;;;;5083153;28;20048;-60
2021/11/19 06:36:15;;;;;;;14.65;8.82;;;;;;;;;;5082406;28;20062;-59
2021/11/19 06:39:02;;;;;;;14.32;9.38;;;;;;;;;;5069947;28;20042;-60
2021/11/19 06:41:47;;;;;;;15.85;9.35;;;;;;;;;;5075614;28;20104;-60
2021/11/19 06:44:33;;;;;;;13.88;9.13;;;;;;;;;;5069674;28;20024;-60
2021/11/19 06:47:18;;;;;;;12.93;8.07;;;;;;;;;;5068700;28;20040;-62
2021/11/19 06:50:04;;;;;;;14.45;9.68;;;;;;;;;;5082496;28;20036;-62
2021/11/19 06:52:49;;;;;;;18.17;9.23;;;;;;;;;;5062539;28;20033;-65
2021/11/19 06:55:35;;;;;;;17.02;10.00;;;;;;;;;;5075476;28;20055;-62
2021/11/19 06:58:21;;;;;;;16.27;7.95;;;;;;;;;;5068192;28;20069;-62
2021/11/19 07:01:06;;;;;;;16.00;9.15;;;;;;;;;;5069261;28;20033;-64
2021/11/19 07:03:51;;;;;;;18.80;10.60;;;;;;;;;;5067689;28;20040;-61
2021/11/19 07:06:37;;;;;;;16.55;8.88;;;;;;;;;;5068992;28;20043;-61
2021/11/19 07:09:22;;;;;;;16.63;10.25;;;;;;;;;;5066467;28;20071;-63
2021/11/19 07:12:08;;;;;;;15.40;8.95;;;;;;;;;;5068619;28;20467;-64
2021/11/19 07:14:53;;;;;;;28.45;17.70;;;;;;;;;;5063998;28;20115;-63
2021/11/19 07:17:39;;;;;;;36.65;23.50;;;;;;;;;;5067709;28;20031;-63
2021/11/19 07:20:25;;;;;;;16.73;9.82;;;;;;;;;;5063169;28;20079;-62
2021/11/19 07:23:10;;;;;;;19.25;9.23;;;;;;;;;;5067237;28;20111;-61
2021/11/19 07:25:56;;;;;;;17.67;9.40;;;;;;;;;;5082912;28;20034;-61
2021/11/19 07:28:41;;;;;;;18.50;9.63;;;;;;;;;;5067505;28;20051;-64
2021/11/19 07:31:26;;;;;;;14.20;9.02;;;;;;;;;;5081443;28;20540;-62
2021/11/19 07:34:12;;;;;;;18.25;10.93;;;;;;;;;;5067630;28;20052;-62
2021/11/19 07:36:57;;;;;;;17.70;10.23;;;;;;;;;;5068465;28;20020;-64
2021/11/19 07:39:42;;;;;;;16.92;9.07;;;;;;;;;;5067312;28;20036;-64
2021/11/19 07:42:28;;;;;;;19.35;9.80;;;;;;;;;;5068629;28;20037;-63
2021/11/19 07:45:14;;;;;;;16.17;9.77;;;;;;;;;;5067456;28;20107;-60
2021/11/19 07:47:59;;;;;;;17.90;10.15;;;;;;;;;;5068530;28;20033;-60
2021/11/19 07:50:46;;;;;;;20.02;9.82;;;;;;;;;;5066858;28;20036;-59
2021/11/19 07:53:32;;;;;;;17.42;9.30;;;;;;;;;;5067577;28;20028;-63
2021/11/19 07:56:18;;;;;;;18.45;9.73;;;;;;;;;;5060643;28;20031;-62
2021/11/19 07:59:09;;;;;;;15.38;9.80;;;;;;;;;;5068891;28;20460;-61
2021/11/19 08:01:57;;;;;;;19.48;11.68;;;;;;;;;;5078214;28;20040;-61
2021/11/19 08:04:42;;;;;;;18.75;11.57;;;;;;;;;;5067817;28;20553;-62
2021/11/19 08:07:27;;;;;;;15.93;10.68;;;;;;;;;;5068976;28;20019;-62
2021/11/19 08:10:13;;;;;;;20.58;10.90;;;;;;;;;;5066530;28;20033;-63
2021/11/19 08:12:58;;;;;;;19.35;12.25;;;;;;;;;;5068500;28;20032;-62
2021/11/19 08:15:44;;;;;;;19.77;10.75;;;;;;;;;;5065748;28;20054;-60
2021/11/19 08:18:32;;;;;;;17.50;10.77;;;;;;;;;;5069805;28;20111;-59
2021/11/19 08:21:17;;;;;;;17.00;11.15;;;;;;;;;;5072971;28;20475;-64
2021/11/19 08:24:04;;;;;;;19.33;11.15;;;;;;;;;;5068263;28;20032;-61
2021/11/19 08:26:53;;;;;;;18.10;11.57;;;;;;;;;;5066774;28;20032;-62
2021/11/19 08:29:40;;;;;;;16.80;10.95;;;;;;;;;;5067104;28;20032;-62
2021/11/19 08:32:26;;;;;;;16.95;9.95;;;;;;;;;;5066672;28;20077;-60
2021/11/19 08:35:12;;;;;;;17.25;10.52;;;;;;;;;;5067819;28;20375;-63
2021/11/19 08:37:57;;;;;;;28.50;18.48;;;;;;;;;;5066627;28;20434;-63
2021/11/19 08:40:44;;;;;;;18.33;12.70;;;;;;;;;;5068429;28;20012;-67
2021/11/19 08:43:31;;;;;;;14.90;9.68;;;;;;;;;;5068051;28;20047;-64
2021/11/19 08:46:19;;;;;;;16.50;10.93;;;;;;;;;;5053015;28;20082;-64
2021/11/19 08:49:07;;;;;;;19.30;11.00;;;;;;;;;;5067332;28;20024;-63
2021/11/19 08:51:53;;;;;;;18.85;11.02;;;;;;;;;;5065890;28;20040;-63
2021/11/19 08:54:39;;;;;;;25.35;13.10;;;;;;;;;;5067835;28;20017;-64
2021/11/19 08:57:24;;;;;;;18.85;12.05;;;;;;;;;;5055410;28;20035;-62
2021/11/19 09:00:13;;;;;;;20.63;11.45;;;;;;;;;;5067591;28;20039;-65
2021/11/19 09:02:59;;;;;;;17.95;11.60;;;;;;;;;;5066711;28;20074;-65
2021/11/19 09:05:45;;;;;;;21.30;12.60;;;;;;;;;;5071164;28;20029;-62
2021/11/19 09:08:30;;;;;;;24.65;13.55;;;;;;;;;;5070285;28;20059;-62
2021/11/19 09:11:19;;;;;;;20.13;12.63;;;;;;;;;;5070375;28;20039;-63
2021/11/19 09:14:05;;;;;;;27.02;13.73;;;;;;;;;;5065072;28;20383;-63
2021/11/19 09:16:50;;;;;;;21.48;12.95;;;;;;;;;;5071727;28;20090;-67
2021/11/19 09:19:40;;;;;;;21.48;11.70;;;;;;;;;;5057020;28;20028;-66
2021/11/19 09:22:34;;;;;;;25.35;13.93;;;;;;;;;;5070167;28;20453;-64
2021/11/19 09:25:20;;;;;;;23.25;12.57;;;;;;;;;;5059827;28;20024;-64
2021/11/19 09:28:06;;;;;;;25.73;14.02;;;;;;;;;;5069804;28;20028;-64
2021/11/19 09:30:54;;;;;;;21.52;14.27;;;;;;;;;;5070084;28;20052;-65
2021/11/19 09:33:39;;;;;;;23.50;14.27;;;;;;;;;;5066726;28;20044;-66
2021/11/19 09:36:25;;;;;;;25.95;15.20;;;;;;;;;;5057056;28;20036;-63
2021/11/19 09:39:11;;;;;;;31.02;14.35;;;;;;;;;;5069441;28;20039;-64
2021/11/19 09:42:09;;;;;;;27.33;14.90;;;;;;;;;;5070909;28;20021;-63
2021/11/19 09:45:12;;;;;;;29.58;14.20;;;;;;;;;;5069681;28;20044;-63
2021/11/19 09:48:16;;;;;;;30.55;15.73;;;;;;;;;;5071004;28;20033;-62
2021/11/19 09:51:17;;;;;;;31.67;14.32;;;;;;;;;;5067623;28;20060;-64
2021/11/19 09:54:14;;;;;;;30.90;15.50;;;;;;;;;;5069750;28;20024;-62
2021/11/19 09:57:18;;;;;;;29.17;17.38;;;;;;;;;;5057258;28;20078;-65
2021/11/19 10:00:03;;;;;;;28.00;14.90;;;;;;;;;;5069931;28;20029;-63
2021/11/19 10:03:07;;;;;;;30.92;17.17;;;;;;;;;;5071238;28;20032;-62
2021/11/19 10:05:55;;;;;;;29.23;15.40;;;;;;;;;;5069748;28;20032;-63
2021/11/19 10:09:03;;;;;;;26.55;14.85;;;;;;;;;;5070676;28;20032;-62
2021/11/19 10:11:52;;;;;;;26.38;13.75;;;;;;;;;;5063479;28;20119;-64
2021/11/19 10:14:40;;;;;;;29.58;15.43;;;;;;;;;;5068831;28;20103;-63
2021/11/19 10:17:28;;;;;;;28.60;15.80;;;;;;;;;;5069325;28;20117;-63
2021/11/19 10:20:19;;;;;;;30.33;16.25;;;;;;;;;;5068950;28;20123;-62
2021/11/19 10:23:12;;;;;;;30.73;15.32;;;;;;;;;;5069967;28;20024;-63
2021/11/19 10:26:04;;;;;;;33.30;16.80;;;;;;;;;;5069480;28;20059;-61
2021/11/19 10:28:53;;;;;;;30.65;16.65;;;;;;;;;;5069553;28;20039;-61
2021/11/19 10:31:38;;;;;;;32.23;16.53;;;;;;;;;;5082599;28;20037;-62
2021/11/19 10:34:26;;;;;;;30.95;17.52;;;;;;;;;;5070079;28;20044;-62
2021/11/19 10:37:11;;;;;;;49.00;31.92;;;;;;;;;;5055121;28;20123;-63
2021/11/19 10:39:59;;;;;;;37.67;20.63;;;;;;;;;;5069535;28;20161;-64
2021/11/19 10:42:47;;;;;;;28.30;17.05;;;;;;;;;;5069073;28;20483;-62
2021/11/19 10:45:35;;;;;;;28.65;15.98;;;;;;;;;;5055584;28;20029;-65
2021/11/19 10:48:24;;;;;;;25.73;15.25;;;;;;;;;;5051935;28;20033;-65
2021/11/19 10:51:12;;;;;;;24.48;14.93;;;;;;;;;;5068192;28;20036;-65
2021/11/19 10:54:04;;;;;;;30.23;15.95;;;;;;;;;;5041753;28;20032;-66
2021/11/19 10:57:08;;;;;;;27.50;14.77;;;;;;;;;;5068101;28;20123;-67
2021/11/19 11:00:04;;;;;;;30.75;16.75;;;;;;;;;;5069142;28;20031;-66
2021/11/19 11:02:57;;;;;;;28.67;16.17;;;;;;;;;;5068199;28;20548;-67
2021/11/19 11:05:43;;;;;;;30.15;16.52;;;;;;;;;;5069444;28;20624;-63
2021/11/19 11:08:33;;;;;;;26.40;14.50;;;;;;;;;;5067917;28;20059;-64
2021/11/19 11:11:21;;;;;;;27.67;17.05;;;;;;;;;;5068370;28;20411;-64
2021/11/19 11:14:10;;;;;;;26.27;16.33;;;;;;;;;;5054788;28;20039;-64
2021/11/19 11:16:58;;;;;;;23.23;14.63;;;;;;;;;;5054155;28;20090;-63
2021/11/19 11:19:46;;;;;;;23.55;14.35;;;;;;;;;;5082881;28;20561;-63
2021/11/19 11:22:33;;;;;;;33.78;15.13;;;;;;;;;;5067455;28;20035;-64
2021/11/19 11:25:30;;;;;;;25.08;14.23;;;;;;;;;;5069148;28;20036;-62
2021/11/19 11:28:20;;;;;;;29.40;17.45;;;;;;;;;;5066712;28;20016;-63
2021/11/19 11:31:14;;;;;;;28.70;15.90;;;;;;;;;;5068711;28;20055;-67
2021/11/19 11:34:24;;;;;;;26.80;14.15;;;;;;;;;;5067882;28;20040;-66
2021/11/19 11:37:21;;;;;;;25.58;13.65;;;;;;;;;;5068674;28;20047;-65
2021/11/19 11:40:28;;;;;;;23.55;14.07;;;;;;;;;;5068353;28;20430;-65
2021/11/19 11:43:19;;;;;;;27.92;15.05;;;;;;;;;;5067734;28;20017;-64
2021/11/19 11:46:31;;;;;;;27.08;14.85;;;;;;;;;;5069038;28;20021;-62
2021/11/19 11:49:23;;;;;;;26.17;14.95;;;;;;;;;;5067228;28;20032;-63
2021/11/19 11:52:11;;;;;;;21.38;13.38;;;;;;;;;;5068414;28;20036;-65
2021/11/19 11:55:09;;;;;;;25.65;15.07;;;;;;;;;;5067759;28;20063;-62
2021/11/19 11:58:02;;;;;;;25.90;15.23;;;;;;;;;;5068180;28;20452;-62
2021/11/19 12:01:08;;;;;;;29.98;14.75;;;;;;;;;;5068025;28;20054;-64
2021/11/19 12:04:02;;;;;;;25.05;15.95;;;;;;;;;;5067220;28;20021;-65
2021/11/19 12:07:01;;;;;;;24.50;15.32;;;;;;;;;;5068418;28;20035;-66
2021/11/19 12:09:50;;;;;;;28.63;17.13;;;;;;;;;;5066109;28;20028;-68
2021/11/19 12:12:37;;;;;;;25.23;16.20;;;;;;;;;;5067975;28;20116;-66
2021/11/19 12:15:31;;;;;;;32.63;17.75;;;;;;;;;;5066886;28;20029;-67
2021/11/19 12:18:26;;;;;;;28.30;16.35;;;;;;;;;;5072537;28;20035;-61
2021/11/19 12:21:11;;;;;;;28.42;17.48;;;;;;;;;;5063956;28;20033;-68
2021/11/19 12:24:15;;;;;;;28.58;17.85;;;;;;;;;;5059514;28;20032;-64
2021/11/19 12:27:07;;;;;;;24.73;13.63;;;;;;;;;;5056950;28;20036;-65
2021/11/19 12:30:11;;;;;;;28.80;15.90;;;;;;;;;;5065923;28;20036;-65
2021/11/19 12:33:03;;;;;;;25.52;14.48;;;;;;;;;;5067918;28;20048;-66
2021/11/19 12:35:54;;;;;;;25.38;14.52;;;;;;;;;;5067789;28;20029;-66
2021/11/19 12:38:42;;;;;;;26.95;15.27;;;;;;;;;;5040838;28;20032;-65
2021/11/19 12:41:30;;;;;;;26.25;14.02;;;;;;;;;;5070901;28;20056;-64
2021/11/19 12:44:24;;;;;;;27.33;16.20;;;;;;;;;;5058229;28;20028;-65
2021/11/19 12:47:25;;;;;;;21.85;14.18;;;;;;;;;;5071424;28;20386;-69
2021/11/19 12:50:28;;;;;;;21.67;13.95;;;;;;;;;;5071087;28;20434;-65
2021/11/19 12:53:16;;;;;;;23.77;13.65;;;;;;;;;;5080048;28;20119;-64
2021/11/19 12:56:01;;;;;;;22.38;12.52;;;;;;;;;;5070628;28;20067;-61
2021/11/19 12:58:46;;;;;;;27.75;16.38;;;;;;;;;;5071718;28;20530;-63
2021/11/19 13:01:41;;;;;;;23.38;14.10;;;;;;;;;;5070865;28;20166;-63
2021/11/19 13:04:27;;;;;;;24.45;14.38;;;;;;;;;;5071773;28;20032;-64
2021/11/19 13:07:33;;;;;;;20.45;13.25;;;;;;;;;;5070684;28;20024;-66
2021/11/19 13:10:18;;;;;;;25.63;14.35;;;;;;;;;;5071164;28;20028;-63
2021/11/19 13:13:25;;;;;;;24.13;14.32;;;;;;;;;;5070188;28;20081;-64
2021/11/19 13:16:22;;;;;;;26.27;15.18;;;;;;;;;;5069148;28;20032;-69
2021/11/19 13:19:26;;;;;;;20.67;13.05;;;;;;;;;;5068837;28;20028;-67
2021/11/19 13:22:21;;;;;;;22.35;12.35;;;;;;;;;;5071996;28;20020;-64
2021/11/19 13:25:35;;;;;;;22.10;13.25;;;;;;;;;;5058335;28;20024;-66
2021/11/19 13:28:40;;;;;;;23.17;13.70;;;;;;;;;;5067170;28;20379;-68
2021/11/19 13:31:28;;;;;;;19.75;12.50;;;;;;;;;;5071087;28;20407;-65
2021/11/19 13:34:13;;;;;;;22.23;13.27;;;;;;;;;;5069964;28;20044;-64
2021/11/19 13:36:58;;;;;;;25.13;12.88;;;;;;;;;;5071149;28;20388;-65
2021/11/19 13:39:44;;;;;;;23.33;12.38;;;;;;;;;;5070419;28;20391;-65
2021/11/19 13:42:44;;;;;;;23.67;12.75;;;;;;;;;;5070198;28;20043;-63
2021/11/19 13:45:42;;;;;;;20.27;10.73;;;;;;;;;;5071598;28;20051;-61
2021/11/19 13:48:28;;;;;;;19.30;12.32;;;;;;;;;;5067718;28;20467;-62
2021/11/19 13:51:13;;;;;;;18.85;10.27;;;;;;;;;;5066734;28;20033;-61
2021/11/19 13:53:58;;;;;;;19.95;10.98;;;;;;;;;;5065899;28;20112;-62
2021/11/19 13:56:50;;;;;;;17.90;10.18;;;;;;;;;;5080898;28;20493;-61
2021/11/19 13:59:44;;;;;;;18.63;10.23;;;;;;;;;;5066108;28;20036;-60
2021/11/19 14:02:45;;;;;;;20.48;10.05;;;;;;;;;;5071243;28;20399;-61
2021/11/19 14:05:33;;;;;;;19.95;10.05;;;;;;;;;;5068445;28;20538;-63
2021/11/19 14:08:20;;;;;;;18.77;9.63;;;;;;;;;;5049344;28;20021;-60
2021/11/19 14:11:16;;;;;;;18.40;10.25;;;;;;;;;;5065506;28;20548;-62
2021/11/19 14:14:13;;;;;;;21.00;11.45;;;;;;;;;;5061351;28;20075;-61
2021/11/19 14:16:58;;;;;;;16.67;9.52;;;;;;;;;;5070251;28;20503;-62
2021/11/19 14:22:32;;;;;;;26.60;11.35;;;;;;;;;;5079743;28;20029;-61
2021/11/19 14:25:23;;;;;;;23.60;11.20;;;;;;;;;;5060895;28;20025;-62
2021/11/19 14:28:12;;;;;;;24.25;11.68;;;;;;;;;;5062169;28;20043;-63
2021/11/19 14:31:02;;;;;;;21.05;10.93;;;;;;;;;;5060558;28;20041;-59
2021/11/19 14:34:02;;;;;;;19.35;9.40;;;;;;;;;;5063569;28;20106;-62
2021/11/19 14:36:51;;;;;;;23.30;10.73;;;;;;;;;;5067488;28;20036;-62
2021/11/19 14:39:36;;;;;;;21.27;10.75;;;;;;;;;;5067489;28;20047;-60
2021/11/19 14:42:26;;;;;;;21.67;11.07;;;;;;;;;;5068138;28;20032;-60
2021/11/19 14:45:11;;;;;;;;;;;;;;;;;;5067695;28;20123;-63
2021/11/19 14:48:05;;;;;;;19.35;10.18;;;;;;;;;;5069240;28;19912;-64
2021/11/19 14:51:05;;;;;;;21.48;9.90;;;;;;;;;;5057996;28;20186;-62
2021/11/19 14:53:52;;;;;;;19.08;10.00;;;;;;;;;;5055099;28;20411;-63
2021/11/19 14:56:37;;;;;;;24.50;11.27;;;;;;;;;;5064561;28;20036;-63
2021/11/19 14:59:24;;;;;;;18.98;11.43;;;;;;;;;;5067995;28;20471;-64
2021/11/19 15:02:20;;;;;;;27.60;15.05;;;;;;;;;;5079254;28;20379;-64
2021/11/19 15:05:12;;;;;;;23.23;11.73;;;;;;;;;;5068990;28;20043;-62
2021/11/19 15:07:59;;;;;;;19.05;11.35;;;;;;;;;;5055197;28;20033;-63
2021/11/19 15:10:55;;;;;;;22.83;10.88;;;;;;;;;;5067917;28;20514;-58
2021/11/19 15:13:54;;;;;;;20.95;10.48;;;;;;;;;;5078776;28;20823;-59
2021/11/19 15:16:42;;;;;;;20.88;11.23;;;;;;;;;;5067112;28;20513;-64
2021/11/19 15:19:49;;;;;;;18.67;11.00;;;;;;;;;;5068565;28;20035;-58
2021/11/19 15:22:39;;;;;;;22.83;10.48;;;;;;;;;;5061296;28;20032;-62
2021/11/19 15:25:24;;;;;;;;;;;;;;;;;;5060719;28;20116;-62
2021/11/19 15:28:25;;;;;;;21.23;10.75;;;;;;;;;;5079515;28;19912;-65
2021/11/19 15:31:19;;;;;;;17.58;11.25;;;;;;;;;;5062020;28;20048;-61
2021/11/19 15:34:08;;;;;;;23.88;10.57;;;;;;;;;;5067694;28;20040;-61
2021/11/19 15:36:56;;;;;;;24.90;10.20;;;;;;;;;;5063794;28;20589;-63
2021/11/19 15:39:42;;;;;;;18.95;9.82;;;;;;;;;;5067121;28;20207;-62
2021/11/19 15:42:28;;;;;;;20.02;10.07;;;;;;;;;;5078228;28;20029;-61
2021/11/19 15:45:13;;;;;;;16.02;9.63;;;;;;;;;;5066765;28;20567;-61
2021/11/19 15:47:59;;;;;;;19.20;10.20;;;;;;;;;;5064700;28;20036;-62
2021/11/19 15:50:44;;;;;;;38.15;26.08;;;;;;;;;;5067438;28;20128;-60
2021/11/19 15:53:34;;;;;;;19.52;11.77;;;;;;;;;;5066444;28;20123;-60
2021/11/19 15:56:19;;;;;;;;;;;;;;;;;;5056559;28;20053;-61
2021/11/19 15:59:07;;;;;;;17.73;9.40;;;;;;;;;;5078555;28;19908;-60
2021/11/19 16:02:02;;;;;;;17.40;9.35;;;;;;;;;;5064234;28;20028;-60
2021/11/19 16:05:06;;;;;;;15.57;8.85;;;;;;;;;;5064010;28;20031;-64
2021/11/19 16:08:02;;;;;;;15.48;9.48;;;;;;;;;;5077999;28;20052;-61
2021/11/19 16:11:06;;;;;;;24.27;9.63;;;;;;;;;;5044783;28;20098;-64
2021/11/19 16:14:02;;;;;;;14.80;8.93;;;;;;;;;;5062927;28;20032;-63
2021/11/19 16:16:57;;;;;;;15.63;9.15;;;;;;;;;;5066769;28;21488;-61
2021/11/19 16:19:42;;;;;;;13.82;8.82;;;;;;;;;;5065715;28;20033;-61
2021/11/19 16:22:27;;;;;;;17.65;9.85;;;;;;;;;;5067936;28;20039;-64
2021/11/19 16:25:13;;;;;;;17.02;8.85;;;;;;;;;;5065483;28;20056;-63
2021/11/19 16:27:59;;;;;;;15.73;9.75;;;;;;;;;;5081105;28;20111;-65
2021/11/19 16:30:45;;;;;;;14.88;10.13;;;;;;;;;;5076002;28;20111;-63
2021/11/19 16:33:30;;;;;;;16.25;9.98;;;;;;;;;;5054499;28;20055;-64
2021/11/19 16:36:17;;;;;;;14.82;9.95;;;;;;;;;;5066150;28;20479;-63